createdAt,value
2023-05-20T00:00:01.894Z,102984.84
2023-05-20T00:03:02.663Z,102981.66
2023-05-20T00:06:03.603Z,102982.91
2023-05-20T00:09:06.616Z,102973.66
2023-05-20T00:12:07.583Z,102968.66
2023-05-20T00:15:08.619Z,102982.69
2023-05-20T00:18:09.659Z,102985.16
2023-05-20T00:21:10.603Z,102982.97
2023-05-20T00:24:11.593Z,102980.97
2023-05-20T00:27:12.755Z,102981.00
2023-05-20T00:30:13.559Z,102973.06
2023-05-20T00:33:14.644Z,102962.59
2023-05-20T00:36:15.564Z,102981.13
2023-05-20T00:39:16.790Z,102972.88
2023-05-20T00:42:17.572Z,102974.00
2023-05-20T00:45:18.647Z,102976.38
2023-05-20T00:48:19.574Z,102972.25
2023-05-20T00:51:20.630Z,102974.97
2023-05-20T00:54:21.574Z,102968.78
2023-05-20T00:57:22.620Z,102973.31
2023-05-20T01:00:23.573Z,102964.41
2023-05-20T01:03:24.851Z,102956.44
2023-05-20T01:06:25.578Z,102962.66
2023-05-20T01:09:26.618Z,102964.88
2023-05-20T01:12:30.621Z,102962.97
2023-05-20T01:15:31.665Z,102963.69
2023-05-20T01:18:32.559Z,102960.56
2023-05-20T01:21:33.582Z,102960.59
2023-05-20T01:24:34.558Z,102961.53
2023-05-20T01:27:36.622Z,102965.19
2023-05-20T01:30:41.587Z,102962.00
2023-05-20T01:33:42.607Z,102963.16
2023-05-20T01:36:44.558Z,102970.59
2023-05-20T01:39:49.726Z,102951.25
2023-05-20T01:42:52.581Z,102981.16
2023-05-20T01:45:55.625Z,102970.63
2023-05-20T01:48:56.562Z,102984.13
2023-05-20T01:51:57.591Z,102974.31
2023-05-20T01:54:58.570Z,102970.72
2023-05-20T01:57:59.627Z,102975.44
2023-05-20T02:01:00.595Z,102968.25
2023-05-20T02:04:01.617Z,102960.75
2023-05-20T02:07:02.562Z,102969.03
2023-05-20T02:10:03.596Z,102966.19
2023-05-20T02:13:04.566Z,102965.78
2023-05-20T02:16:06.640Z,102978.31
2023-05-20T02:19:08.652Z,102964.72
2023-05-20T02:22:09.612Z,102968.88
2023-05-20T02:25:10.545Z,102966.47
2023-05-20T02:28:12.642Z,102973.16
2023-05-20T02:31:13.587Z,102963.31
2023-05-20T02:34:14.657Z,102963.25
2023-05-20T02:37:15.557Z,102959.44
2023-05-20T02:40:16.757Z,102959.25
2023-05-20T02:43:17.552Z,102961.06
2023-05-20T02:46:18.636Z,102965.94
2023-05-20T02:49:19.586Z,102957.41
2023-05-20T02:52:20.596Z,102966.97
2023-05-20T02:55:21.551Z,102966.00
2023-05-20T02:58:22.579Z,102975.72
2023-05-20T03:01:23.667Z,102971.09
2023-05-20T03:04:25.647Z,102977.00
2023-05-20T03:07:28.579Z,102972.06
2023-05-20T03:10:29.604Z,102982.41
2023-05-20T03:13:30.571Z,102978.28
2023-05-20T03:16:31.696Z,102983.25
2023-05-20T03:19:32.562Z,102986.97
2023-05-20T03:22:33.610Z,102983.56
2023-05-20T03:25:35.675Z,102982.75
2023-05-20T03:28:36.609Z,102982.25
2023-05-20T03:31:37.552Z,102981.44
2023-05-20T03:34:38.609Z,102983.22
2023-05-20T03:37:39.569Z,102988.91
2023-05-20T03:40:40.769Z,102994.63
2023-05-20T03:43:41.580Z,102997.13
2023-05-20T03:46:42.629Z,102998.31
2023-05-20T03:49:43.536Z,102996.31
2023-05-20T03:52:44.590Z,102999.72
2023-05-20T03:55:48.567Z,102996.16
2023-05-20T03:58:49.599Z,102998.47
2023-05-20T04:01:50.623Z,103000.59
2023-05-20T04:04:51.551Z,103005.00
2023-05-20T04:07:52.533Z,103004.13
2023-05-20T04:10:54.576Z,103006.38
2023-05-20T04:13:55.552Z,103003.16
2023-05-20T04:16:56.627Z,102997.59
2023-05-20T04:19:57.554Z,102999.78
2023-05-20T04:22:58.597Z,102999.50
2023-05-20T04:25:59.545Z,102999.19
2023-05-20T04:29:00.594Z,102993.75
2023-05-20T04:32:05.577Z,103000.94
2023-05-20T04:35:08.571Z,102994.56
2023-05-20T04:38:12.563Z,102987.69
2023-05-20T04:41:13.864Z,102991.69
2023-05-20T04:44:14.541Z,102995.38
2023-05-20T04:47:15.612Z,103002.53
2023-05-20T04:50:19.515Z,103004.56
2023-05-20T04:53:20.596Z,102999.00
2023-05-20T04:56:21.527Z,103003.34
2023-05-20T04:59:22.618Z,103002.22
2023-05-20T05:02:23.521Z,103004.31
2023-05-20T05:05:24.583Z,103006.88
2023-05-20T05:08:25.531Z,103007.63
2023-05-20T05:11:27.589Z,103004.59
2023-05-20T05:14:28.524Z,103001.91
2023-05-20T05:17:29.649Z,103001.75
2023-05-20T05:20:30.529Z,103010.19
2023-05-20T05:23:31.615Z,103002.69
2023-05-20T05:26:33.541Z,103004.25
2023-05-20T05:29:34.585Z,102996.28
2023-05-20T05:32:35.667Z,103003.00
2023-05-20T05:35:36.578Z,103004.91
2023-05-20T05:38:37.541Z,102994.41
2023-05-20T05:41:38.735Z,102997.59
2023-05-20T05:44:39.540Z,102999.44
2023-05-20T05:47:40.577Z,103001.75
2023-05-20T05:50:42.539Z,103002.22
2023-05-20T05:53:44.723Z,103005.72
2023-05-20T05:56:45.535Z,103004.13
2023-05-20T05:59:46.574Z,103000.78
2023-05-20T06:02:47.736Z,102999.69
2023-05-20T06:05:59.577Z,103008.47
2023-05-20T06:09:01.555Z,103005.72
2023-05-20T06:12:03.593Z,103007.97
2023-05-20T06:15:04.636Z,103006.38
2023-05-20T06:18:06.633Z,103012.94
2023-05-20T06:21:10.529Z,103000.00
2023-05-20T06:24:12.589Z,103003.34
2023-05-20T06:27:13.564Z,103003.34
2023-05-20T06:30:14.578Z,103004.47
2023-05-20T06:33:15.510Z,103007.41
2023-05-20T06:36:16.590Z,103003.00
2023-05-20T06:39:20.511Z,103006.22
2023-05-20T06:42:21.781Z,103005.97
2023-05-20T06:45:32.656Z,103004.91
2023-05-20T06:48:52.610Z,102998.63
2023-05-20T06:51:53.514Z,103000.19
2023-05-20T06:54:54.596Z,102993.41
2023-05-20T06:57:55.516Z,102996.13
2023-05-20T07:00:57.561Z,102998.50
2023-05-20T07:03:58.527Z,102994.97
2023-05-20T07:07:00.565Z,102996.91
2023-05-20T07:10:01.540Z,102988.97
2023-05-20T07:13:02.558Z,102988.81
2023-05-20T07:16:03.557Z,102997.72
2023-05-20T07:19:07.666Z,102992.16
2023-05-20T07:22:08.536Z,102991.84
2023-05-20T07:25:25.549Z,102984.97
2023-05-20T07:28:29.550Z,102983.06
2023-05-20T07:31:30.620Z,102974.25
2023-05-20T07:34:31.540Z,102971.97
2023-05-20T07:37:32.553Z,102972.50
2023-05-20T07:40:34.715Z,102969.38
2023-05-20T07:43:36.756Z,102964.34
2023-05-20T07:46:37.549Z,102969.63
2023-05-20T07:49:38.598Z,102971.84
2023-05-20T07:55:43.551Z,102968.19
2023-05-20T07:58:45.515Z,102972.34
2023-05-20T08:01:47.584Z,102971.41
2023-05-20T08:04:48.488Z,102964.00
2023-05-20T08:07:49.573Z,102976.44
2023-05-20T08:10:53.511Z,102963.47
2023-05-20T08:13:55.557Z,102973.91
2023-05-20T08:17:00.505Z,102967.66
2023-05-20T08:20:01.590Z,102971.59
2023-05-20T08:23:03.527Z,102960.13
2023-05-20T08:26:08.569Z,102960.69
2023-05-20T08:29:10.498Z,102968.97
2023-05-20T08:32:11.569Z,102965.94
2023-05-20T08:35:13.524Z,102972.91
2023-05-20T08:38:14.539Z,102965.44
2023-05-20T08:41:15.493Z,102971.50
2023-05-20T08:44:18.743Z,102971.41
2023-05-20T08:47:19.531Z,102962.81
2023-05-20T08:50:20.594Z,102969.53
2023-05-20T08:53:21.518Z,102963.13
2023-05-20T08:56:23.662Z,102957.13
2023-05-20T08:59:24.597Z,102960.72
2023-05-20T09:02:25.561Z,102956.34
2023-05-20T09:05:26.520Z,102966.47
2023-05-20T09:08:27.553Z,102962.59
2023-05-20T09:11:29.517Z,102952.41
2023-05-20T09:14:33.559Z,102967.28
2023-05-20T09:17:37.516Z,102960.25
2023-05-20T09:20:39.545Z,102953.69
2023-05-20T09:23:40.521Z,102962.00
2023-05-20T09:26:41.584Z,102958.00
2023-05-20T09:29:42.476Z,102955.56
2023-05-20T09:32:43.643Z,102952.41
2023-05-20T09:35:44.483Z,102958.47
2023-05-20T09:38:47.670Z,102954.38
2023-05-20T09:41:52.498Z,102956.97
2023-05-20T09:44:53.705Z,102956.47
2023-05-20T09:47:54.607Z,102954.06
2023-05-20T09:50:55.552Z,102963.84
2023-05-20T09:53:56.520Z,102956.00
2023-05-20T09:56:57.551Z,102953.25
2023-05-20T10:00:00.485Z,102946.97
2023-05-20T10:03:06.564Z,102951.91
2023-05-20T10:06:34.478Z,102948.16
2023-05-20T10:09:53.559Z,102949.44
2023-05-20T10:13:03.488Z,102942.50
2023-05-20T10:16:04.548Z,102947.69
2023-05-20T10:19:08.520Z,102944.78
2023-05-20T10:22:13.545Z,102947.97
2023-05-20T10:25:17.500Z,102935.94
2023-05-20T10:28:21.532Z,102934.88
2023-05-20T10:31:48.509Z,102928.44
2023-05-20T10:34:58.539Z,102924.25
2023-05-20T10:37:59.502Z,102925.97
2023-05-20T10:41:00.531Z,102918.78
2023-05-20T10:44:01.494Z,102916.56
2023-05-20T10:50:19.505Z,102911.69
2023-05-20T10:53:32.362Z,102907.75
2023-05-20T10:56:34.504Z,102912.41
2023-05-20T10:59:35.533Z,102903.75
2023-05-20T11:02:36.562Z,102891.69
2023-05-20T11:05:40.537Z,102886.00
2023-05-20T11:08:37.586Z,102883.47
2023-05-20T11:11:31.548Z,102881.69
2023-05-20T11:14:32.479Z,102877.13
2023-05-20T11:17:33.544Z,102864.53
2023-05-20T11:20:34.595Z,102861.25
2023-05-20T11:23:35.526Z,102866.59
2023-05-20T11:26:36.491Z,102865.19
2023-05-20T11:29:39.519Z,102856.66
2023-05-20T11:32:40.570Z,102864.75
2023-05-20T11:35:41.559Z,102868.91
2023-05-20T11:38:43.476Z,102865.78
2023-05-20T11:41:45.544Z,102860.16
2023-05-20T11:44:46.492Z,102847.22
2023-05-20T11:47:47.695Z,102863.94
2023-05-20T11:50:52.491Z,102846.84
2023-05-20T11:53:55.530Z,102861.91
2023-05-20T11:56:57.480Z,102849.63
2023-05-20T11:59:58.502Z,102852.97
2023-05-20T12:02:59.564Z,102848.19
2023-05-20T12:06:00.501Z,102854.56
2023-05-20T12:09:01.483Z,102850.03
2023-05-20T12:12:03.495Z,102847.13
2023-05-20T12:15:04.610Z,102846.00
2023-05-20T12:18:06.546Z,102835.66
2023-05-20T12:21:07.488Z,102839.63
2023-05-20T12:24:08.562Z,102839.69
2023-05-20T12:27:10.512Z,102834.25
2023-05-20T12:30:11.552Z,102840.63
2023-05-20T12:33:12.492Z,102829.09
2023-05-20T12:36:13.530Z,102830.72
2023-05-20T12:39:14.453Z,102816.38
2023-05-20T12:42:15.514Z,102809.38
2023-05-20T12:45:16.464Z,102818.31
2023-05-20T12:48:18.017Z,102817.78
2023-05-20T12:51:18.450Z,102804.34
2023-05-20T12:54:19.593Z,102814.13
2023-05-20T12:57:20.464Z,102803.81
2023-05-20T13:00:21.521Z,102794.38
2023-05-20T13:03:22.527Z,102798.69
2023-05-20T13:06:23.642Z,102789.53
2023-05-20T13:09:24.473Z,102798.25
2023-05-20T13:12:25.541Z,102788.75
2023-05-20T13:15:35.457Z,102783.88
2023-05-20T13:18:36.529Z,102779.94
2023-05-20T13:21:38.515Z,102781.53
2023-05-20T13:24:39.490Z,102779.34
2023-05-20T13:27:40.582Z,102776.13
2023-05-20T13:30:41.524Z,102774.63
2023-05-20T13:33:42.484Z,102764.50
2023-05-20T13:36:43.501Z,102767.91
2023-05-20T13:39:44.483Z,102761.94
2023-05-20T13:42:45.526Z,102774.63
2023-05-20T13:45:46.461Z,102767.34
2023-05-20T13:48:47.657Z,102770.13
2023-05-20T13:51:48.471Z,102770.19
2023-05-20T13:54:51.523Z,102719.00
2023-05-20T13:57:52.449Z,102755.44
2023-05-20T14:00:53.496Z,102753.28
2023-05-20T14:03:54.529Z,102753.63
2023-05-20T14:06:55.509Z,102760.63
2023-05-20T14:09:56.451Z,102758.31
2023-05-20T14:12:57.506Z,102753.19
2023-05-20T14:15:58.481Z,102746.53
2023-05-20T14:18:59.592Z,102744.97
2023-05-20T14:22:00.445Z,102751.88
2023-05-20T14:25:01.520Z,102754.75
2023-05-20T14:28:03.457Z,102719.78
2023-05-20T14:31:05.156Z,102749.31
2023-05-20T14:34:07.457Z,102740.34
2023-05-20T14:37:14.529Z,102738.41
2023-05-20T14:40:15.450Z,102741.00
2023-05-20T14:43:16.512Z,102742.31
2023-05-20T14:46:17.463Z,102735.47
2023-05-20T14:49:18.570Z,102729.16
2023-05-20T14:52:19.458Z,102724.94
2023-05-20T14:55:20.496Z,102728.28
2023-05-20T14:58:21.454Z,102727.41
2023-05-20T15:01:22.545Z,102720.38
2023-05-20T15:04:23.462Z,102727.31
2023-05-20T15:07:24.504Z,102718.88
2023-05-20T15:10:25.468Z,102710.63
2023-05-20T15:13:26.476Z,102714.72
2023-05-20T15:16:30.487Z,102707.97
2023-05-20T15:19:31.647Z,102703.66
2023-05-20T15:22:32.455Z,102690.19
2023-05-20T15:25:33.656Z,102700.63
2023-05-20T15:28:34.464Z,102699.59
2023-05-20T15:31:36.514Z,102691.88
2023-05-20T15:34:37.449Z,102689.94
2023-05-20T15:37:38.494Z,102688.38
2023-05-20T15:40:39.456Z,102675.75
2023-05-20T15:43:40.497Z,102667.84
2023-05-20T15:46:41.545Z,102668.56
2023-05-20T15:49:42.679Z,102664.34
2023-05-20T15:52:43.486Z,102664.91
2023-05-20T15:55:45.119Z,102657.06
2023-05-20T15:58:46.437Z,102647.25
2023-05-20T16:01:47.579Z,102651.06
2023-05-20T16:04:48.480Z,102648.81
2023-05-20T16:07:49.467Z,102648.25
2023-05-20T16:10:50.454Z,102643.00
2023-05-20T16:13:51.547Z,102644.25
2023-05-20T16:16:52.447Z,102642.00
2023-05-20T16:19:53.474Z,102643.53
2023-05-20T16:22:54.451Z,102633.28
2023-05-20T16:25:55.498Z,102641.19
2023-05-20T16:28:56.456Z,102642.81
2023-05-20T16:31:57.559Z,102641.03
2023-05-20T16:34:58.445Z,102649.84
2023-05-20T16:37:59.495Z,102646.97
2023-05-20T16:41:00.457Z,102641.31
2023-05-20T16:44:01.483Z,102634.94
2023-05-20T16:47:02.430Z,102643.94
2023-05-20T16:50:03.637Z,102642.22
2023-05-20T16:53:05.422Z,102646.25
2023-05-20T16:56:06.495Z,102648.28
2023-05-20T16:59:07.442Z,102640.47
2023-05-20T17:02:08.546Z,102646.38
2023-05-20T17:05:09.495Z,102641.53
2023-05-20T17:08:10.472Z,102638.41
2023-05-20T17:11:12.425Z,102635.13
2023-05-20T17:14:13.527Z,102642.50
2023-05-20T17:17:15.483Z,102633.19
2023-05-20T17:20:16.474Z,102643.47
2023-05-20T17:23:17.445Z,102638.41
2023-05-20T17:26:18.476Z,102645.00
2023-05-20T17:29:19.418Z,102635.03
2023-05-20T17:32:20.454Z,102644.25
2023-05-20T17:35:21.515Z,102638.72
2023-05-20T17:38:22.472Z,102651.03
2023-05-20T17:41:24.449Z,102628.72
2023-05-20T17:44:25.480Z,102651.63
2023-05-20T17:47:26.484Z,102661.31
2023-05-20T17:50:27.707Z,102659.19
2023-05-20T17:53:28.436Z,102662.47
2023-05-20T17:56:29.463Z,102665.47
2023-05-20T17:59:30.453Z,102664.22
2023-05-20T18:02:31.522Z,102658.63
2023-05-20T18:05:32.430Z,102654.53
2023-05-20T18:08:33.486Z,102659.88
2023-05-20T18:11:34.425Z,102659.97
2023-05-20T18:14:35.473Z,102652.41
2023-05-20T18:17:37.982Z,102659.19
2023-05-20T18:20:40.475Z,102662.97
2023-05-20T18:23:41.412Z,102665.19
2023-05-20T18:26:42.483Z,102657.44
2023-05-20T18:29:43.411Z,102665.03
2023-05-20T18:32:45.498Z,102666.47
2023-05-20T18:35:46.419Z,102665.22
2023-05-20T18:38:47.475Z,102662.47
2023-05-20T18:41:48.415Z,102658.63
2023-05-20T18:44:49.527Z,102662.28
2023-05-20T18:47:50.464Z,102670.34
2023-05-20T18:50:51.547Z,102666.34
2023-05-20T18:53:52.404Z,102667.91
2023-05-20T18:56:55.439Z,102672.00
2023-05-20T18:59:56.404Z,102669.28
2023-05-20T19:02:57.483Z,102669.28
2023-05-20T19:05:58.553Z,102676.06
2023-05-20T19:08:59.434Z,102672.75
2023-05-20T19:12:03.436Z,102665.78
2023-05-20T19:15:04.462Z,102672.19
2023-05-20T19:18:05.476Z,102660.94
2023-05-20T19:21:06.456Z,102674.22
2023-05-20T19:24:07.402Z,102675.66
2023-05-20T19:27:09.446Z,102675.97
2023-05-20T19:30:11.224Z,102677.81
2023-05-20T19:33:14.454Z,102674.31
2023-05-20T19:36:15.407Z,102677.72
2023-05-20T19:39:16.453Z,102678.47
2023-05-20T19:42:17.404Z,102688.00
2023-05-20T19:45:18.466Z,102686.91
2023-05-20T19:48:21.998Z,102675.66
2023-05-20T19:51:23.657Z,102682.66
2023-05-20T19:54:24.377Z,102682.84
2023-05-20T19:57:25.461Z,102681.19
2023-05-20T20:00:26.391Z,102680.84
2023-05-20T20:03:27.445Z,102688.69
2023-05-20T20:06:28.475Z,102684.25
2023-05-20T20:09:29.500Z,102686.38
2023-05-20T20:12:30.409Z,102678.41
2023-05-20T20:15:31.731Z,102683.25
2023-05-20T20:18:32.409Z,102686.19
2023-05-20T20:21:33.438Z,102686.38
2023-05-20T20:24:34.407Z,102690.91
2023-05-20T20:27:35.442Z,102682.28
2023-05-20T20:30:36.402Z,102685.69
2023-05-20T20:33:37.412Z,102686.38
2023-05-20T20:36:38.411Z,102692.19
2023-05-20T20:39:39.427Z,102687.53
2023-05-20T20:42:41.374Z,102689.69
2023-05-20T20:45:44.428Z,102685.97
2023-05-20T20:48:45.480Z,102683.44
2023-05-20T20:51:46.593Z,102686.16
2023-05-20T20:54:47.411Z,102694.56
2023-05-20T20:57:48.442Z,102689.84
2023-05-20T21:00:51.477Z,102686.34
2023-05-20T21:03:52.476Z,102685.59
2023-05-20T21:06:53.376Z,102678.19
2023-05-20T21:09:54.439Z,102691.78
2023-05-20T21:12:55.384Z,102682.59
2023-05-20T21:15:56.448Z,102674.72
2023-05-20T21:18:57.396Z,102672.97
2023-05-20T21:21:58.445Z,102670.94
2023-05-20T21:24:59.402Z,102673.56
2023-05-20T21:28:00.423Z,102670.25
2023-05-20T21:31:01.478Z,102665.78
2023-05-20T21:34:02.446Z,102662.50
2023-05-20T21:37:03.378Z,102669.06
2023-05-20T21:40:04.429Z,102664.00
2023-05-20T21:43:05.368Z,102663.66
2023-05-20T21:46:06.452Z,102664.63
2023-05-20T21:49:07.397Z,102663.84
2023-05-20T21:52:08.603Z,102657.25
2023-05-20T21:55:09.413Z,102664.81
2023-05-20T21:58:10.410Z,102659.75
2023-05-20T22:01:11.463Z,102662.28
2023-05-20T22:04:13.461Z,102661.13
2023-05-20T22:07:14.456Z,102659.88
2023-05-20T22:10:20.462Z,102656.66
2023-05-20T22:13:21.382Z,102665.41
2023-05-20T22:16:23.473Z,102663.72
2023-05-20T22:19:24.484Z,102666.72
2023-05-20T22:22:25.447Z,102666.84
2023-05-20T22:25:26.394Z,102668.88
2023-05-20T22:28:27.443Z,102672.16
2023-05-20T22:31:28.412Z,102673.16
2023-05-20T22:34:29.463Z,102664.50
2023-05-20T22:37:30.374Z,102669.25
2023-05-20T22:40:31.452Z,102678.66
2023-05-20T22:43:33.396Z,102683.91
2023-05-20T22:46:34.496Z,102683.41
2023-05-20T22:49:35.374Z,102676.72
2023-05-20T22:52:36.595Z,102680.31
2023-05-20T22:55:37.586Z,102677.16
2023-05-20T22:58:46.431Z,102678.56
2023-05-20T23:01:47.376Z,102679.91
2023-05-20T23:04:48.474Z,102675.31
2023-05-20T23:07:49.360Z,102680.41
2023-05-20T23:10:50.424Z,102680.47
2023-05-20T23:13:51.384Z,102668.69
2023-05-20T23:16:52.427Z,102677.41
2023-05-20T23:19:53.376Z,102671.88
2023-05-20T23:22:54.401Z,102671.81
2023-05-20T23:25:55.418Z,102670.97
2023-05-20T23:28:56.403Z,102664.03
2023-05-20T23:31:57.390Z,102675.84
2023-05-20T23:34:59.427Z,102670.63
2023-05-20T23:38:00.384Z,102673.13
2023-05-20T23:41:01.405Z,102664.81
2023-05-20T23:44:02.379Z,102664.63
2023-05-20T23:47:03.412Z,102667.91
2023-05-20T23:50:04.368Z,102663.84
2023-05-20T23:53:05.481Z,102674.69
2023-05-20T23:56:06.349Z,102662.09
2023-05-20T23:59:07.415Z,102663.84
